sensor_id;sensor_type;location;lat;lon;timestamp;P1;durP1;ratioP1;P2;durP2;ratioP2
29916;SDS011;16786;49.466;11.068;2024-02-14T00:01:25;12.40;;;7.82;;
29916;SDS011;16786;49.466;11.068;2024-02-14T00:03:52;12.73;;;8.20;;
29916;SDS011;16786;49.466;11.068;2024-02-14T00:06:19;13.15;;;7.35;;
29916;SDS011;16786;49.466;11.068;2024-02-14T00:08:46;15.23;;;7.50;;
29916;SDS011;16786;49.466;11.068;2024-02-14T00:11:13;15.98;;;7.82;;
29916;SDS011;16786;49.466;11.068;2024-02-14T00:13:41;14.73;;;7.30;;
29916;SDS011;16786;49.466;11.068;2024-02-14T00:16:07;13.52;;;7.78;;
29916;SDS011;16786;49.466;11.068;2024-02-14T00:18:35;13.10;;;7.82;;
29916;SDS011;16786;49.466;11.068;2024-02-14T00:21:03;14.73;;;7.93;;
29916;SDS011;16786;49.466;11.068;2024-02-14T00:23:30;15.05;;;8.05;;
29916;SDS011;16786;49.466;11.068;2024-02-14T00:25:57;12.48;;;7.68;;
29916;SDS011;16786;49.466;11.068;2024-02-14T00:28:24;14.02;;;8.32;;
29916;SDS011;16786;49.466;11.068;2024-02-14T00:30:53;13.52;;;7.95;;
29916;SDS011;16786;49.466;11.068;2024-02-14T00:33:40;14.15;;;8.27;;
29916;SDS011;16786;49.466;11.068;2024-02-14T00:36:08;11.75;;;7.78;;
29916;SDS011;16786;49.466;11.068;2024-02-14T00:38:35;15.02;;;8.10;;
29916;SDS011;16786;49.466;11.068;2024-02-14T00:41:02;15.40;;;8.38;;
29916;SDS011;16786;49.466;11.068;2024-02-14T00:43:29;15.23;;;8.88;;
29916;SDS011;16786;49.466;11.068;2024-02-14T00:45:56;15.05;;;7.93;;
29916;SDS011;16786;49.466;11.068;2024-02-14T00:48:23;14.25;;;8.35;;
29916;SDS011;16786;49.466;11.068;2024-02-14T00:50:50;13.70;;;8.02;;
29916;SDS011;16786;49.466;11.068;2024-02-14T00:53:18;13.13;;;8.32;;
29916;SDS011;16786;49.466;11.068;2024-02-14T00:55:45;16.58;;;8.30;;
29916;SDS011;16786;49.466;11.068;2024-02-14T00:58:12;16.20;;;7.90;;
29916;SDS011;16786;49.466;11.068;2024-02-14T01:00:39;13.05;;;8.02;;
29916;SDS011;16786;49.466;11.068;2024-02-14T01:03:06;15.05;;;8.48;;
29916;SDS011;16786;49.466;11.068;2024-02-14T01:05:34;13.98;;;7.68;;
29916;SDS011;16786;49.466;11.068;2024-02-14T01:08:01;16.17;;;8.23;;
29916;SDS011;16786;49.466;11.068;2024-02-14T01:10:28;16.27;;;8.57;;
29916;SDS011;16786;49.466;11.068;2024-02-14T01:12:55;15.32;;;7.97;;
29916;SDS011;16786;49.466;11.068;2024-02-14T01:15:23;12.00;;;7.80;;
29916;SDS011;16786;49.466;11.068;2024-02-14T01:17:50;12.40;;;7.47;;
29916;SDS011;16786;49.466;11.068;2024-02-14T01:20:17;13.38;;;7.93;;
29916;SDS011;16786;49.466;11.068;2024-02-14T01:22:44;13.00;;;7.60;;
29916;SDS011;16786;49.466;11.068;2024-02-14T01:25:20;16.77;;;8.07;;
29916;SDS011;16786;49.466;11.068;2024-02-14T01:27:47;13.60;;;7.35;;
29916;SDS011;16786;49.466;11.068;2024-02-14T01:30:15;12.70;;;7.60;;
29916;SDS011;16786;49.466;11.068;2024-02-14T01:32:43;17.52;;;7.68;;
29916;SDS011;16786;49.466;11.068;2024-02-14T01:35:10;12.43;;;7.05;;
29916;SDS011;16786;49.466;11.068;2024-02-14T01:37:37;13.20;;;7.57;;
29916;SDS011;16786;49.466;11.068;2024-02-14T01:40:04;12.48;;;6.85;;
29916;SDS011;16786;49.466;11.068;2024-02-14T01:42:47;12.98;;;7.20;;
29916;SDS011;16786;49.466;11.068;2024-02-14T01:45:14;11.32;;;7.00;;
29916;SDS011;16786;49.466;11.068;2024-02-14T01:47:48;11.82;;;7.13;;
29916;SDS011;16786;49.466;11.068;2024-02-14T01:50:16;11.43;;;6.38;;
29916;SDS011;16786;49.466;11.068;2024-02-14T01:52:44;13.35;;;6.75;;
29916;SDS011;16786;49.466;11.068;2024-02-14T01:55:12;11.75;;;6.70;;
29916;SDS011;16786;49.466;11.068;2024-02-14T01:57:39;11.63;;;6.78;;
29916;SDS011;16786;49.466;11.068;2024-02-14T02:00:06;11.35;;;6.70;;
29916;SDS011;16786;49.466;11.068;2024-02-14T02:02:44;11.13;;;6.57;;
29916;SDS011;16786;49.466;11.068;2024-02-14T02:05:17;9.32;;;6.00;;
29916;SDS011;16786;49.466;11.068;2024-02-14T02:07:45;10.23;;;6.75;;
29916;SDS011;16786;49.466;11.068;2024-02-14T02:10:14;11.98;;;6.80;;
29916;SDS011;16786;49.466;11.068;2024-02-14T02:13:02;11.43;;;6.60;;
29916;SDS011;16786;49.466;11.068;2024-02-14T02:15:49;9.55;;;5.63;;
29916;SDS011;16786;49.466;11.068;2024-02-14T02:18:38;10.93;;;5.95;;
29916;SDS011;16786;49.466;11.068;2024-02-14T02:21:25;12.20;;;6.43;;
29916;SDS011;16786;49.466;11.068;2024-02-14T02:23:52;13.57;;;6.88;;
29916;SDS011;16786;49.466;11.068;2024-02-14T02:26:19;10.55;;;6.15;;
29916;SDS011;16786;49.466;11.068;2024-02-14T02:29:06;9.93;;;6.60;;
29916;SDS011;16786;49.466;11.068;2024-02-14T02:31:33;9.60;;;5.82;;
29916;SDS011;16786;49.466;11.068;2024-02-14T02:34:00;10.57;;;6.78;;
29916;SDS011;16786;49.466;11.068;2024-02-14T02:36:27;10.52;;;5.68;;
29916;SDS011;16786;49.466;11.068;2024-02-14T02:39:16;9.40;;;6.05;;
29916;SDS011;16786;49.466;11.068;2024-02-14T02:42:03;13.10;;;6.63;;
29916;SDS011;16786;49.466;11.068;2024-02-14T02:44:56;11.00;;;6.30;;
29916;SDS011;16786;49.466;11.068;2024-02-14T02:47:46;12.57;;;5.95;;
29916;SDS011;16786;49.466;11.068;2024-02-14T02:50:34;10.27;;;6.25;;
29916;SDS011;16786;49.466;11.068;2024-02-14T02:53:22;8.70;;;5.80;;
29916;SDS011;16786;49.466;11.068;2024-02-14T02:56:09;11.80;;;5.68;;
29916;SDS011;16786;49.466;11.068;2024-02-14T02:58:37;9.90;;;5.90;;
29916;SDS011;16786;49.466;11.068;2024-02-14T03:01:07;11.45;;;5.88;;
29916;SDS011;16786;49.466;11.068;2024-02-14T03:03:55;10.55;;;6.22;;
29916;SDS011;16786;49.466;11.068;2024-02-14T03:06:42;13.00;;;7.20;;
29916;SDS011;16786;49.466;11.068;2024-02-14T03:09:22;13.48;;;6.40;;
29916;SDS011;16786;49.466;11.068;2024-02-14T03:12:09;8.80;;;6.03;;
29916;SDS011;16786;49.466;11.068;2024-02-14T03:14:56;10.00;;;5.65;;
29916;SDS011;16786;49.466;11.068;2024-02-14T03:17:32;12.18;;;6.32;;
29916;SDS011;16786;49.466;11.068;2024-02-14T03:19:59;9.43;;;5.85;;
29916;SDS011;16786;49.466;11.068;2024-02-14T03:22:31;8.88;;;5.80;;
29916;SDS011;16786;49.466;11.068;2024-02-14T03:24:58;10.75;;;6.50;;
29916;SDS011;16786;49.466;11.068;2024-02-14T03:27:25;10.85;;;5.70;;
29916;SDS011;16786;49.466;11.068;2024-02-14T03:29:53;6.97;;;5.13;;
29916;SDS011;16786;49.466;11.068;2024-02-14T03:32:21;10.50;;;5.65;;
29916;SDS011;16786;49.466;11.068;2024-02-14T03:34:49;10.57;;;5.82;;
29916;SDS011;16786;49.466;11.068;2024-02-14T03:37:16;9.30;;;5.28;;
29916;SDS011;16786;49.466;11.068;2024-02-14T03:39:44;12.40;;;5.45;;
29916;SDS011;16786;49.466;11.068;2024-02-14T03:42:12;12.43;;;5.47;;
29916;SDS011;16786;49.466;11.068;2024-02-14T03:44:39;10.85;;;5.38;;
29916;SDS011;16786;49.466;11.068;2024-02-14T03:47:07;10.55;;;5.63;;
29916;SDS011;16786;49.466;11.068;2024-02-14T03:49:33;10.02;;;5.38;;
29916;SDS011;16786;49.466;11.068;2024-02-14T03:52:01;9.82;;;5.30;;
29916;SDS011;16786;49.466;11.068;2024-02-14T03:54:35;10.23;;;5.50;;
29916;SDS011;16786;49.466;11.068;2024-02-14T03:57:03;8.05;;;5.43;;
29916;SDS011;16786;49.466;11.068;2024-02-14T03:59:35;9.10;;;5.57;;
29916;SDS011;16786;49.466;11.068;2024-02-14T04:02:03;8.27;;;5.22;;
29916;SDS011;16786;49.466;11.068;2024-02-14T04:04:30;10.65;;;5.93;;
29916;SDS011;16786;49.466;11.068;2024-02-14T04:06:57;11.10;;;5.50;;
29916;SDS011;16786;49.466;11.068;2024-02-14T04:09:27;9.45;;;5.68;;
29916;SDS011;16786;49.466;11.068;2024-02-14T04:11:54;11.82;;;5.82;;
29916;SDS011;16786;49.466;11.068;2024-02-14T04:14:21;7.53;;;5.22;;
29916;SDS011;16786;49.466;11.068;2024-02-14T04:16:48;13.70;;;5.32;;
29916;SDS011;16786;49.466;11.068;2024-02-14T04:19:15;10.68;;;5.57;;
29916;SDS011;16786;49.466;11.068;2024-02-14T04:21:44;8.18;;;5.60;;
29916;SDS011;16786;49.466;11.068;2024-02-14T04:24:12;8.32;;;5.03;;
29916;SDS011;16786;49.466;11.068;2024-02-14T04:26:39;12.07;;;5.13;;
29916;SDS011;16786;49.466;11.068;2024-02-14T04:29:07;9.43;;;5.38;;
29916;SDS011;16786;49.466;11.068;2024-02-14T04:31:34;9.90;;;5.63;;
29916;SDS011;16786;49.466;11.068;2024-02-14T04:34:04;9.40;;;5.35;;
29916;SDS011;16786;49.466;11.068;2024-02-14T04:36:34;11.80;;;5.78;;
29916;SDS011;16786;49.466;11.068;2024-02-14T04:39:01;11.18;;;5.55;;
29916;SDS011;16786;49.466;11.068;2024-02-14T04:41:29;8.98;;;5.18;;
29916;SDS011;16786;49.466;11.068;2024-02-14T04:43:57;10.43;;;5.57;;
29916;SDS011;16786;49.466;11.068;2024-02-14T04:46:24;9.00;;;5.70;;
29916;SDS011;16786;49.466;11.068;2024-02-14T04:48:50;10.88;;;5.80;;
29916;SDS011;16786;49.466;11.068;2024-02-14T04:51:17;9.45;;;6.07;;
29916;SDS011;16786;49.466;11.068;2024-02-14T04:53:45;10.05;;;5.70;;
29916;SDS011;16786;49.466;11.068;2024-02-14T04:56:12;11.80;;;5.80;;
29916;SDS011;16786;49.466;11.068;2024-02-14T04:58:39;10.57;;;6.13;;
29916;SDS011;16786;49.466;11.068;2024-02-14T05:01:06;12.65;;;5.78;;
29916;SDS011;16786;49.466;11.068;2024-02-14T05:03:33;12.40;;;6.32;;
29916;SDS011;16786;49.466;11.068;2024-02-14T05:06:00;9.63;;;5.57;;
29916;SDS011;16786;49.466;11.068;2024-02-14T05:08:29;12.85;;;6.43;;
29916;SDS011;16786;49.466;11.068;2024-02-14T05:10:56;10.88;;;5.90;;
29916;SDS011;16786;49.466;11.068;2024-02-14T05:13:23;10.07;;;5.78;;
29916;SDS011;16786;49.466;11.068;2024-02-14T05:15:50;11.52;;;6.82;;
29916;SDS011;16786;49.466;11.068;2024-02-14T05:18:17;10.07;;;6.25;;
29916;SDS011;16786;49.466;11.068;2024-02-14T05:20:45;9.60;;;5.80;;
29916;SDS011;16786;49.466;11.068;2024-02-14T05:23:13;12.57;;;6.35;;
29916;SDS011;16786;49.466;11.068;2024-02-14T05:25:40;12.32;;;6.43;;
29916;SDS011;16786;49.466;11.068;2024-02-14T05:28:07;15.23;;;6.47;;
29916;SDS011;16786;49.466;11.068;2024-02-14T05:30:34;11.35;;;5.80;;
29916;SDS011;16786;49.466;11.068;2024-02-14T05:33:13;11.40;;;5.85;;
29916;SDS011;16786;49.466;11.068;2024-02-14T05:35:40;9.45;;;6.43;;
29916;SDS011;16786;49.466;11.068;2024-02-14T05:38:07;13.43;;;6.65;;
29916;SDS011;16786;49.466;11.068;2024-02-14T05:40:34;16.00;;;7.20;;
29916;SDS011;16786;49.466;11.068;2024-02-14T05:43:04;10.35;;;6.18;;
29916;SDS011;16786;49.466;11.068;2024-02-14T05:45:31;14.15;;;7.05;;
29916;SDS011;16786;49.466;11.068;2024-02-14T05:47:57;11.95;;;6.78;;
29916;SDS011;16786;49.466;11.068;2024-02-14T05:50:25;13.13;;;6.57;;
29916;SDS011;16786;49.466;11.068;2024-02-14T05:52:52;12.70;;;6.35;;
29916;SDS011;16786;49.466;11.068;2024-02-14T05:55:19;11.40;;;7.07;;
29916;SDS011;16786;49.466;11.068;2024-02-14T05:57:50;13.00;;;7.05;;
29916;SDS011;16786;49.466;11.068;2024-02-14T06:00:20;11.02;;;6.65;;
29916;SDS011;16786;49.466;11.068;2024-02-14T06:02:51;12.90;;;7.00;;
29916;SDS011;16786;49.466;11.068;2024-02-14T06:05:18;12.73;;;7.50;;
29916;SDS011;16786;49.466;11.068;2024-02-14T06:07:45;12.60;;;6.32;;
29916;SDS011;16786;49.466;11.068;2024-02-14T06:10:12;13.73;;;7.10;;
29916;SDS011;16786;49.466;11.068;2024-02-14T06:12:39;11.02;;;6.63;;
29916;SDS011;16786;49.466;11.068;2024-02-14T06:15:07;13.98;;;6.43;;
29916;SDS011;16786;49.466;11.068;2024-02-14T06:17:34;12.30;;;6.50;;
29916;SDS011;16786;49.466;11.068;2024-02-14T06:20:01;14.60;;;6.18;;
29916;SDS011;16786;49.466;11.068;2024-02-14T06:22:33;15.32;;;6.75;;
29916;SDS011;16786;49.466;11.068;2024-02-14T06:25:07;12.27;;;6.53;;
29916;SDS011;16786;49.466;11.068;2024-02-14T06:27:45;16.08;;;9.05;;
29916;SDS011;16786;49.466;11.068;2024-02-14T06:30:12;14.73;;;8.40;;
29916;SDS011;16786;49.466;11.068;2024-02-14T06:32:39;13.02;;;6.53;;
29916;SDS011;16786;49.466;11.068;2024-02-14T06:35:07;13.32;;;6.20;;
29916;SDS011;16786;49.466;11.068;2024-02-14T06:37:34;11.85;;;6.03;;
29916;SDS011;16786;49.466;11.068;2024-02-14T06:40:14;11.45;;;6.10;;
29916;SDS011;16786;49.466;11.068;2024-02-14T06:42:41;13.20;;;7.00;;
29916;SDS011;16786;49.466;11.068;2024-02-14T06:45:08;12.68;;;6.57;;
29916;SDS011;16786;49.466;11.068;2024-02-14T06:47:36;9.32;;;5.72;;
29916;SDS011;16786;49.466;11.068;2024-02-14T06:50:04;11.35;;;6.20;;
29916;SDS011;16786;49.466;11.068;2024-02-14T06:52:32;12.73;;;6.20;;
29916;SDS011;16786;49.466;11.068;2024-02-14T06:54:59;13.57;;;7.03;;
29916;SDS011;16786;49.466;11.068;2024-02-14T06:57:26;10.35;;;6.68;;
29916;SDS011;16786;49.466;11.068;2024-02-14T06:59:53;9.60;;;6.05;;
29916;SDS011;16786;49.466;11.068;2024-02-14T07:02:20;10.65;;;6.47;;
29916;SDS011;16786;49.466;11.068;2024-02-14T07:04:47;17.85;;;7.15;;
29916;SDS011;16786;49.466;11.068;2024-02-14T07:07:15;13.60;;;6.47;;
29916;SDS011;16786;49.466;11.068;2024-02-14T07:09:42;12.18;;;6.63;;
29916;SDS011;16786;49.466;11.068;2024-02-14T07:12:09;12.45;;;6.80;;
29916;SDS011;16786;49.466;11.068;2024-02-14T07:14:36;12.35;;;6.15;;
29916;SDS011;16786;49.466;11.068;2024-02-14T07:17:03;10.27;;;6.15;;
29916;SDS011;16786;49.466;11.068;2024-02-14T07:19:30;12.13;;;6.63;;
29916;SDS011;16786;49.466;11.068;2024-02-14T07:21:57;12.75;;;6.75;;
29916;SDS011;16786;49.466;11.068;2024-02-14T07:24:24;13.07;;;6.30;;
29916;SDS011;16786;49.466;11.068;2024-02-14T07:26:51;14.32;;;8.15;;
29916;SDS011;16786;49.466;11.068;2024-02-14T07:29:18;11.73;;;7.18;;
29916;SDS011;16786;49.466;11.068;2024-02-14T07:31:45;10.63;;;6.63;;
29916;SDS011;16786;49.466;11.068;2024-02-14T07:34:12;14.68;;;7.80;;
29916;SDS011;16786;49.466;11.068;2024-02-14T07:36:39;13.40;;;6.95;;
29916;SDS011;16786;49.466;11.068;2024-02-14T07:39:07;11.10;;;7.13;;
29916;SDS011;16786;49.466;11.068;2024-02-14T07:41:35;17.30;;;7.38;;
29916;SDS011;16786;49.466;11.068;2024-02-14T07:44:02;14.00;;;7.55;;
29916;SDS011;16786;49.466;11.068;2024-02-14T07:46:29;12.98;;;7.25;;
29916;SDS011;16786;49.466;11.068;2024-02-14T07:48:58;12.43;;;7.13;;
29916;SDS011;16786;49.466;11.068;2024-02-14T07:51:25;16.10;;;7.50;;
29916;SDS011;16786;49.466;11.068;2024-02-14T07:53:54;12.27;;;7.38;;
29916;SDS011;16786;49.466;11.068;2024-02-14T07:56:21;14.23;;;7.13;;
29916;SDS011;16786;49.466;11.068;2024-02-14T07:58:48;13.95;;;7.20;;
29916;SDS011;16786;49.466;11.068;2024-02-14T08:01:16;12.48;;;7.90;;
29916;SDS011;16786;49.466;11.068;2024-02-14T08:03:43;15.05;;;8.18;;
29916;SDS011;16786;49.466;11.068;2024-02-14T08:06:13;12.98;;;7.78;;
29916;SDS011;16786;49.466;11.068;2024-02-14T08:08:40;18.77;;;9.10;;
29916;SDS011;16786;49.466;11.068;2024-02-14T08:11:07;11.50;;;7.47;;
29916;SDS011;16786;49.466;11.068;2024-02-14T08:13:34;10.43;;;6.97;;
29916;SDS011;16786;49.466;11.068;2024-02-14T08:16:01;15.52;;;7.57;;
29916;SDS011;16786;49.466;11.068;2024-02-14T08:18:28;13.35;;;7.30;;
29916;SDS011;16786;49.466;11.068;2024-02-14T08:20:55;15.52;;;8.25;;
29916;SDS011;16786;49.466;11.068;2024-02-14T08:23:22;12.82;;;7.95;;
29916;SDS011;16786;49.466;11.068;2024-02-14T08:25:49;10.55;;;7.20;;
29916;SDS011;16786;49.466;11.068;2024-02-14T08:28:16;11.88;;;7.63;;
29916;SDS011;16786;49.466;11.068;2024-02-14T08:30:47;12.83;;;7.83;;
29916;SDS011;16786;49.466;11.068;2024-02-14T08:33:14;14.63;;;7.57;;
29916;SDS011;16786;49.466;11.068;2024-02-14T08:35:41;13.70;;;8.20;;
29916;SDS011;16786;49.466;11.068;2024-02-14T08:38:09;11.38;;;7.68;;
29916;SDS011;16786;49.466;11.068;2024-02-14T08:40:36;16.65;;;8.05;;
29916;SDS011;16786;49.466;11.068;2024-02-14T08:43:03;27.40;;;14.40;;
29916;SDS011;16786;49.466;11.068;2024-02-14T08:45:31;16.52;;;8.35;;
29916;SDS011;16786;49.466;11.068;2024-02-14T08:47:58;13.05;;;8.10;;
29916;SDS011;16786;49.466;11.068;2024-02-14T08:50:26;18.50;;;7.70;;
29916;SDS011;16786;49.466;11.068;2024-02-14T08:52:52;14.18;;;6.88;;
29916;SDS011;16786;49.466;11.068;2024-02-14T08:55:19;13.57;;;7.55;;
29916;SDS011;16786;49.466;11.068;2024-02-14T08:57:46;13.93;;;7.30;;
29916;SDS011;16786;49.466;11.068;2024-02-14T09:00:16;13.93;;;7.85;;
29916;SDS011;16786;49.466;11.068;2024-02-14T09:02:46;12.88;;;7.75;;
29916;SDS011;16786;49.466;11.068;2024-02-14T09:05:14;11.70;;;6.70;;
29916;SDS011;16786;49.466;11.068;2024-02-14T09:07:43;11.93;;;7.15;;
29916;SDS011;16786;49.466;11.068;2024-02-14T09:10:10;12.88;;;7.60;;
29916;SDS011;16786;49.466;11.068;2024-02-14T09:12:39;12.27;;;7.15;;
29916;SDS011;16786;49.466;11.068;2024-02-14T09:15:08;13.93;;;7.03;;
29916;SDS011;16786;49.466;11.068;2024-02-14T09:17:35;12.95;;;7.60;;
29916;SDS011;16786;49.466;11.068;2024-02-14T09:20:02;10.95;;;6.95;;
29916;SDS011;16786;49.466;11.068;2024-02-14T09:22:30;12.77;;;7.35;;
29916;SDS011;16786;49.466;11.068;2024-02-14T09:24:57;20.35;;;10.35;;
29916;SDS011;16786;49.466;11.068;2024-02-14T09:27:24;14.13;;;8.25;;
29916;SDS011;16786;49.466;11.068;2024-02-14T09:29:51;10.75;;;6.38;;
29916;SDS011;16786;49.466;11.068;2024-02-14T09:32:18;13.85;;;6.72;;
29916;SDS011;16786;49.466;11.068;2024-02-14T09:34:45;14.07;;;6.22;;
29916;SDS011;16786;49.466;11.068;2024-02-14T09:37:12;13.38;;;6.85;;
29916;SDS011;16786;49.466;11.068;2024-02-14T09:39:40;9.98;;;6.22;;
29916;SDS011;16786;49.466;11.068;2024-02-14T09:42:11;10.82;;;6.28;;
29916;SDS011;16786;49.466;11.068;2024-02-14T09:44:41;10.95;;;6.47;;
29916;SDS011;16786;49.466;11.068;2024-02-14T09:47:09;14.43;;;7.03;;
29916;SDS011;16786;49.466;11.068;2024-02-14T09:49:36;10.18;;;6.32;;
29916;SDS011;16786;49.466;11.068;2024-02-14T09:52:05;13.15;;;5.90;;
29916;SDS011;16786;49.466;11.068;2024-02-14T09:54:34;9.88;;;5.78;;
29916;SDS011;16786;49.466;11.068;2024-02-14T09:57:05;10.07;;;6.40;;
29916;SDS011;16786;49.466;11.068;2024-02-14T09:59:32;13.07;;;6.25;;
29916;SDS011;16786;49.466;11.068;2024-02-14T10:02:01;10.23;;;6.05;;
29916;SDS011;16786;49.466;11.068;2024-02-14T10:04:28;11.18;;;6.35;;
29916;SDS011;16786;49.466;11.068;2024-02-14T10:06:55;12.05;;;6.20;;
29916;SDS011;16786;49.466;11.068;2024-02-14T10:09:22;10.25;;;5.93;;
29916;SDS011;16786;49.466;11.068;2024-02-14T10:11:52;10.38;;;5.80;;
29916;SDS011;16786;49.466;11.068;2024-02-14T10:14:19;10.13;;;5.50;;
29916;SDS011;16786;49.466;11.068;2024-02-14T10:16:46;12.77;;;5.63;;
29916;SDS011;16786;49.466;11.068;2024-02-14T10:19:16;11.60;;;6.07;;
29916;SDS011;16786;49.466;11.068;2024-02-14T10:21:54;9.98;;;6.28;;
29916;SDS011;16786;49.466;11.068;2024-02-14T10:24:32;17.83;;;7.00;;
29916;SDS011;16786;49.466;11.068;2024-02-14T10:26:59;9.95;;;5.82;;
29916;SDS011;16786;49.466;11.068;2024-02-14T10:29:27;13.35;;;6.47;;
29916;SDS011;16786;49.466;11.068;2024-02-14T10:31:54;13.05;;;6.70;;
29916;SDS011;16786;49.466;11.068;2024-02-14T10:34:24;15.73;;;6.65;;
29916;SDS011;16786;49.466;11.068;2024-02-14T10:36:52;16.80;;;8.63;;
29916;SDS011;16786;49.466;11.068;2024-02-14T10:39:22;11.30;;;6.05;;
29916;SDS011;16786;49.466;11.068;2024-02-14T10:41:52;14.05;;;6.05;;
29916;SDS011;16786;49.466;11.068;2024-02-14T10:44:20;10.38;;;5.35;;
29916;SDS011;16786;49.466;11.068;2024-02-14T10:46:47;10.63;;;6.05;;
29916;SDS011;16786;49.466;11.068;2024-02-14T10:49:18;12.52;;;5.65;;
29916;SDS011;16786;49.466;11.068;2024-02-14T10:51:47;10.85;;;6.03;;
29916;SDS011;16786;49.466;11.068;2024-02-14T10:54:17;10.65;;;6.30;;
29916;SDS011;16786;49.466;11.068;2024-02-14T10:56:48;11.20;;;6.43;;
29916;SDS011;16786;49.466;11.068;2024-02-14T10:59:19;10.98;;;6.15;;
29916;SDS011;16786;49.466;11.068;2024-02-14T11:01:47;9.10;;;5.43;;
29916;SDS011;16786;49.466;11.068;2024-02-14T11:04:15;13.35;;;6.20;;
29916;SDS011;16786;49.466;11.068;2024-02-14T11:06:46;11.77;;;5.40;;
29916;SDS011;16786;49.466;11.068;2024-02-14T11:09:14;10.40;;;5.53;;
29916;SDS011;16786;49.466;11.068;2024-02-14T11:11:44;8.93;;;5.00;;
29916;SDS011;16786;49.466;11.068;2024-02-14T11:14:17;9.63;;;4.97;;
29916;SDS011;16786;49.466;11.068;2024-02-14T11:16:48;9.95;;;5.25;;
29916;SDS011;16786;49.466;11.068;2024-02-14T11:19:18;10.52;;;5.00;;
29916;SDS011;16786;49.466;11.068;2024-02-14T11:21:46;10.35;;;5.05;;
29916;SDS011;16786;49.466;11.068;2024-02-14T11:24:15;9.98;;;4.97;;
29916;SDS011;16786;49.466;11.068;2024-02-14T11:26:49;10.80;;;5.10;;
29916;SDS011;16786;49.466;11.068;2024-02-14T11:29:18;8.07;;;4.72;;
29916;SDS011;16786;49.466;11.068;2024-02-14T11:34:24;8.43;;;4.85;;
29916;SDS011;16786;49.466;11.068;2024-02-14T11:36:51;9.50;;;4.50;;
29916;SDS011;16786;49.466;11.068;2024-02-14T11:39:19;8.13;;;3.72;;
29916;SDS011;16786;49.466;11.068;2024-02-14T11:41:47;6.15;;;3.58;;
29916;SDS011;16786;49.466;11.068;2024-02-14T11:44:14;4.93;;;3.38;;
29916;SDS011;16786;49.466;11.068;2024-02-14T11:46:41;7.03;;;3.30;;
29916;SDS011;16786;49.466;11.068;2024-02-14T11:49:08;9.23;;;2.90;;
29916;SDS011;16786;49.466;11.068;2024-02-14T11:51:36;5.22;;;2.72;;
29916;SDS011;16786;49.466;11.068;2024-02-14T11:54:04;5.38;;;2.80;;
29916;SDS011;16786;49.466;11.068;2024-02-14T11:56:34;6.68;;;3.60;;
29916;SDS011;16786;49.466;11.068;2024-02-14T11:59:04;4.85;;;2.78;;
29916;SDS011;16786;49.466;11.068;2024-02-14T12:01:36;8.15;;;2.80;;
29916;SDS011;16786;49.466;11.068;2024-02-14T12:04:05;4.60;;;2.92;;
29916;SDS011;16786;49.466;11.068;2024-02-14T12:06:35;5.45;;;2.67;;
29916;SDS011;16786;49.466;11.068;2024-02-14T12:09:04;6.03;;;2.65;;
29916;SDS011;16786;49.466;11.068;2024-02-14T12:11:36;7.78;;;2.60;;
29916;SDS011;16786;49.466;11.068;2024-02-14T12:14:08;5.65;;;2.75;;
29916;SDS011;16786;49.466;11.068;2024-02-14T12:16:36;8.15;;;3.90;;
29916;SDS011;16786;49.466;11.068;2024-02-14T12:19:07;5.72;;;2.83;;
29916;SDS011;16786;49.466;11.068;2024-02-14T12:21:37;5.47;;;2.78;;
29916;SDS011;16786;49.466;11.068;2024-02-14T12:24:08;6.03;;;2.83;;
29916;SDS011;16786;49.466;11.068;2024-02-14T12:26:37;4.38;;;2.38;;
29916;SDS011;16786;49.466;11.068;2024-02-14T12:29:05;5.97;;;2.67;;
29916;SDS011;16786;49.466;11.068;2024-02-14T12:31:33;6.60;;;2.95;;
29916;SDS011;16786;49.466;11.068;2024-02-14T12:34:02;5.93;;;2.50;;
29916;SDS011;16786;49.466;11.068;2024-02-14T12:36:32;5.03;;;2.20;;
29916;SDS011;16786;49.466;11.068;2024-02-14T12:39:00;4.30;;;2.65;;
29916;SDS011;16786;49.466;11.068;2024-02-14T12:41:31;5.47;;;2.20;;
29916;SDS011;16786;49.466;11.068;2024-02-14T12:43:58;5.63;;;2.67;;
29916;SDS011;16786;49.466;11.068;2024-02-14T12:46:27;5.28;;;2.38;;
29916;SDS011;16786;49.466;11.068;2024-02-14T12:48:54;5.22;;;2.30;;
29916;SDS011;16786;49.466;11.068;2024-02-14T12:51:21;3.50;;;2.15;;
29916;SDS011;16786;49.466;11.068;2024-02-14T12:53:48;7.40;;;2.67;;
29916;SDS011;16786;49.466;11.068;2024-02-14T12:56:15;5.93;;;2.50;;
29916;SDS011;16786;49.466;11.068;2024-02-14T12:58:43;4.05;;;2.30;;
29916;SDS011;16786;49.466;11.068;2024-02-14T13:01:10;5.18;;;2.72;;
29916;SDS011;16786;49.466;11.068;2024-02-14T13:03:38;6.35;;;2.17;;
29916;SDS011;16786;49.466;11.068;2024-02-14T13:06:05;6.85;;;2.33;;
29916;SDS011;16786;49.466;11.068;2024-02-14T13:08:33;6.30;;;2.05;;
29916;SDS011;16786;49.466;11.068;2024-02-14T13:11:00;4.40;;;2.10;;
29916;SDS011;16786;49.466;11.068;2024-02-14T13:13:27;5.57;;;2.80;;
29916;SDS011;16786;49.466;11.068;2024-02-14T13:15:56;4.82;;;2.03;;
29916;SDS011;16786;49.466;11.068;2024-02-14T13:18:23;4.28;;;2.30;;
29916;SDS011;16786;49.466;11.068;2024-02-14T13:20:51;5.30;;;2.20;;
29916;SDS011;16786;49.466;11.068;2024-02-14T13:23:26;4.40;;;2.25;;
29916;SDS011;16786;49.466;11.068;2024-02-14T13:25:53;7.05;;;2.55;;
29916;SDS011;16786;49.466;11.068;2024-02-14T13:28:20;5.05;;;2.35;;
29916;SDS011;16786;49.466;11.068;2024-02-14T13:30:47;4.78;;;2.30;;
29916;SDS011;16786;49.466;11.068;2024-02-14T13:33:14;4.13;;;1.95;;
29916;SDS011;16786;49.466;11.068;2024-02-14T13:35:41;3.78;;;2.25;;
29916;SDS011;16786;49.466;11.068;2024-02-14T13:38:08;4.03;;;2.28;;
29916;SDS011;16786;49.466;11.068;2024-02-14T13:40:37;5.78;;;2.20;;
29916;SDS011;16786;49.466;11.068;2024-02-14T13:43:04;5.38;;;2.30;;
29916;SDS011;16786;49.466;11.068;2024-02-14T13:45:41;3.20;;;2.20;;
29916;SDS011;16786;49.466;11.068;2024-02-14T13:48:09;5.07;;;2.40;;
29916;SDS011;16786;49.466;11.068;2024-02-14T13:50:37;4.40;;;1.77;;
29916;SDS011;16786;49.466;11.068;2024-02-14T13:53:08;5.90;;;1.85;;
29916;SDS011;16786;49.466;11.068;2024-02-14T13:55:35;4.57;;;2.30;;
29916;SDS011;16786;49.466;11.068;2024-02-14T13:58:03;4.03;;;2.15;;
29916;SDS011;16786;49.466;11.068;2024-02-14T14:00:30;4.10;;;2.17;;
29916;SDS011;16786;49.466;11.068;2024-02-14T14:02:57;4.07;;;1.90;;
29916;SDS011;16786;49.466;11.068;2024-02-14T14:05:24;4.10;;;2.10;;
29916;SDS011;16786;49.466;11.068;2024-02-14T14:07:51;3.65;;;2.13;;
29916;SDS011;16786;49.466;11.068;2024-02-14T14:10:25;3.95;;;2.10;;
29916;SDS011;16786;49.466;11.068;2024-02-14T14:12:54;7.40;;;2.28;;
29916;SDS011;16786;49.466;11.068;2024-02-14T14:15:22;5.13;;;2.50;;
29916;SDS011;16786;49.466;11.068;2024-02-14T14:17:50;4.85;;;2.00;;
29916;SDS011;16786;49.466;11.068;2024-02-14T14:20:18;5.60;;;2.33;;
29916;SDS011;16786;49.466;11.068;2024-02-14T14:22:46;3.45;;;1.92;;
29916;SDS011;16786;49.466;11.068;2024-02-14T14:25:13;3.67;;;2.20;;
29916;SDS011;16786;49.466;11.068;2024-02-14T14:27:41;8.20;;;2.40;;
29916;SDS011;16786;49.466;11.068;2024-02-14T14:30:09;5.45;;;2.60;;
29916;SDS011;16786;49.466;11.068;2024-02-14T14:32:37;6.53;;;2.65;;
29916;SDS011;16786;49.466;11.068;2024-02-14T14:35:06;3.70;;;2.30;;
29916;SDS011;16786;49.466;11.068;2024-02-14T14:37:33;3.88;;;2.17;;
29916;SDS011;16786;49.466;11.068;2024-02-14T14:40:00;4.65;;;2.38;;